Time;durP1;ratioP1;P1;durP2;ratioP2;P2;SDS_P1;SDS_P2;PMS_P1;PMS_P2;Temp;Humidity;BMP_temperature;BMP_pressure;BME280_temperature;BME280_humidity;BME280_pressure;Samples;Min_cycle;Max_cycle;Signal;HPM_P1;HPM_P2
2023/04/29 00:00:48;;;;;;;;;;;;;;;14.57;60.84;100321.00;5429655;32;35434;-65
2023/04/29 00:03:50;;;;;;;;;;;;;;;14.81;60.64;100338.13;5416936;32;35198;-70
2023/04/29 00:06:52;;;;;;;;;;;;;;;14.49;60.94;100332.03;5409415;32;34686;-64
2023/04/29 00:09:54;;;;;;;;;;;;;;;14.44;60.72;100335.81;5418634;32;34873;-66
2023/04/29 00:12:56;;;;;;;;;;;;;;;14.11;62.39;100335.91;5422019;32;34830;-64
2023/04/29 00:15:58;;;;;;;;;;;;;;;14.70;58.99;100334.38;5421526;32;34823;-71
2023/04/29 00:19:00;;;;;;;;;;;;;;;15.51;55.33;100333.09;5415355;32;35453;-64
2023/04/29 00:22:02;;;;;;;;;;;;;;;14.39;59.51;100328.13;5415364;32;34581;-64
2023/04/29 00:25:04;;;;;;;;;;;;;;;14.37;57.53;100306.22;5417585;32;34292;-65
2023/04/29 00:28:06;;;;;;;;;;;;;;;15.14;57.03;100321.22;5424918;32;35617;-71
2023/04/29 00:31:08;;;;;;;;;;;;;;;15.13;57.28;100316.84;5398352;32;34869;-71
2023/04/29 00:34:10;;;;;;;;;;;;;;;14.29;59.58;100314.56;5410986;32;43237;-70
2023/04/29 00:37:12;;;;;;;;;;;;;;;15.03;53.25;100307.75;5419925;32;34748;-70
2023/04/29 00:40:15;;;;;;;;;;;;;;;15.91;47.53;100304.22;5420155;32;34682;-67
2023/04/29 00:43:17;;;;;;;;;;;;;;;15.75;47.67;100308.75;5429655;32;35586;-64
2023/04/29 00:46:19;;;;;;;;;;;;;;;15.34;48.26;100312.09;5417805;32;34755;-64
2023/04/29 00:49:21;;;;;;;;;;;;;;;15.90;43.46;100319.25;5426643;32;34856;-70
2023/04/29 00:52:23;;;;;;;;;;;;;;;15.99;43.58;100323.12;5410465;32;34948;-71
2023/04/29 00:55:25;;;;;;;;;;;;;;;15.65;44.15;100325.22;5412755;32;36130;-70
2023/04/29 00:58:32;;;;;;;;;;;;;;;15.59;44.18;100319.41;5420568;32;35768;-71
2023/04/29 01:01:34;;;;;;;;;;;;;;;15.95;42.61;100303.06;5414082;32;33379;-67
2023/04/29 01:04:36;;;;;;;;;;;;;;;15.92;43.19;100322.66;5409087;32;34831;-71
2023/04/29 01:07:38;;;;;;;;;;;;;;;15.27;44.86;100321.34;5402989;32;35456;-65
2023/04/29 01:10:41;;;;;;;;;;;;;;;15.51;44.61;100309.25;5423067;32;45872;-71
2023/04/29 01:13:49;;;;;;;;;;;;;;;15.48;46.28;100328.00;5409369;32;34252;-64
2023/04/29 01:16:51;;;;;;;;;;;;;;;15.71;43.87;100326.62;5412751;32;37095;-66
2023/04/29 01:19:54;;;;;;;;;;;;;;;15.67;43.95;100328.63;5423275;32;35125;-71
2023/04/29 01:22:57;;;;;;;;;;;;;;;15.05;47.29;100325.25;5406875;32;35645;-65
2023/04/29 01:25:59;;;;;;;;;;;;;;;14.71;47.92;100328.16;5429602;32;35017;-65
2023/04/29 01:29:05;;;;;;;;;;;;;;;14.50;48.37;100315.22;5413986;32;35389;-71
2023/04/29 01:32:10;;;;;;;;;;;;;;;15.25;47.07;100320.56;5406346;32;35159;-64
2023/04/29 01:35:16;;;;;;;;;;;;;;;14.80;48.07;100314.38;5412699;32;46785;-72
2023/04/29 01:38:37;;;;;;;;;;;;;;;14.89;48.08;100324.44;5415013;32;35255;-64
2023/04/29 01:41:43;;;;;;;;;;;;;;;15.11;47.19;100316.09;5410390;32;35216;-65
2023/04/29 01:44:44;;;;;;;;;;;;;;;15.08;48.38;100313.66;5418443;32;46747;-70
2023/04/29 01:47:46;;;;;;;;;;;;;;;15.17;46.47;100306.00;5427139;32;34891;-65
2023/04/29 01:50:48;;;;;;;;;;;;;;;15.72;44.22;100312.44;5419339;32;35477;-71
2023/04/29 01:53:50;;;;;;;;;;;;;;;15.34;43.69;100291.75;5428706;32;35736;-71
2023/04/29 01:56:52;;;;;;;;;;;;;;;15.33;43.92;100303.31;5402336;32;35164;-71
2023/04/29 01:59:57;;;;;;;;;;;;;;;15.72;43.23;100282.47;5415256;32;36195;-64
2023/04/29 02:02:59;;;;;;;;;;;;;;;15.41;44.93;100308.13;5411092;32;35102;-65
2023/04/29 02:06:01;;;;;;;;;;;;;;;16.15;41.00;100297.34;5412373;32;36804;-65
2023/04/29 02:09:03;;;;;;;;;;;;;;;15.62;42.23;100313.94;5430107;32;34247;-71
2023/04/29 02:12:05;;;;;;;;;;;;;;;16.23;40.52;100299.53;5421183;32;35324;-65
2023/04/29 02:15:07;;;;;;;;;;;;;;;15.81;41.56;100311.87;5422630;32;35316;-65
2023/04/29 02:18:09;;;;;;;;;;;;;;;16.30;39.75;100292.88;5420688;32;35746;-73
2023/04/29 02:21:11;;;;;;;;;;;;;;;16.04;40.38;100299.84;5412828;32;46880;-65
2023/04/29 02:24:13;;;;;;;;;;;;;;;16.01;40.70;100307.97;5424915;32;35691;-70
2023/04/29 02:27:15;;;;;;;;;;;;;;;15.22;42.74;100302.25;5402305;32;34676;-70
2023/04/29 02:30:17;;;;;;;;;;;;;;;15.88;40.65;100305.25;5405028;32;35372;-65
2023/04/29 02:33:19;;;;;;;;;;;;;;;15.64;41.06;100307.59;5397993;32;34718;-69
2023/04/29 02:36:21;;;;;;;;;;;;;;;15.54;41.20;100295.00;5425662;32;34832;-67
2023/04/29 02:39:23;;;;;;;;;;;;;;;16.02;40.24;100298.22;5403004;32;35513;-70
2023/04/29 02:42:25;;;;;;;;;;;;;;;15.59;40.68;100296.41;5389796;32;35425;-65
2023/04/29 02:45:27;;;;;;;;;;;;;;;15.45;41.16;100289.28;5427996;32;34880;-71
2023/04/29 02:48:29;;;;;;;;;;;;;;;15.49;41.40;100297.91;5425989;32;35796;-72
2023/04/29 02:51:31;;;;;;;;;;;;;;;15.26;41.28;100295.78;5406561;32;34918;-70
2023/04/29 02:54:33;;;;;;;;;;;;;;;15.13;42.02;100290.38;5419881;32;34828;-71
2023/04/29 02:57:35;;;;;;;;;;;;;;;15.11;41.65;100271.94;5405928;32;34324;-70
2023/04/29 03:00:37;;;;;;;;;;;;;;;15.20;41.75;100280.28;5400350;32;35552;-67
2023/04/29 03:03:39;;;;;;;;;;;;;;;14.94;42.16;100272.13;5395104;32;34721;-71
2023/04/29 03:06:42;;;;;;;;;;;;;;;14.88;42.38;100285.72;5413265;32;47165;-70
2023/04/29 03:09:44;;;;;;;;;;;;;;;14.70;42.67;100289.41;5400215;32;36721;-70
2023/04/29 03:12:46;;;;;;;;;;;;;;;14.94;42.39;100289.75;5426128;32;34441;-66
2023/04/29 03:15:48;;;;;;;;;;;;;;;15.18;41.57;100293.59;5416365;32;34962;-69
2023/04/29 03:18:50;;;;;;;;;;;;;;;15.19;41.52;100292.66;5421460;32;34924;-65
2023/04/29 03:21:52;;;;;;;;;;;;;;;15.24;41.40;100281.81;5423586;32;36217;-64
2023/04/29 03:24:54;;;;;;;;;;;;;;;15.23;41.40;100288.91;5405645;32;34892;-65
2023/04/29 03:27:56;;;;;;;;;;;;;;;14.95;42.14;100283.56;5428648;32;34652;-71
2023/04/29 03:31:00;;;;;;;;;;;;;;;14.73;42.76;100289.22;5396114;32;34993;-70
2023/04/29 03:34:03;;;;;;;;;;;;;;;15.15;41.46;100286.72;5428056;32;35918;-71
2023/04/29 03:37:05;;;;;;;;;;;;;;;15.20;41.31;100285.56;5418821;32;35098;-72
2023/04/29 03:40:07;;;;;;;;;;;;;;;14.36;43.10;100293.91;5421190;32;34124;-65
2023/04/29 03:43:09;;;;;;;;;;;;;;;15.26;41.68;100290.50;5422561;32;34346;-71
2023/04/29 03:46:10;;;;;;;;;;;;;;;15.59;40.79;100285.81;5408863;32;46723;-65
2023/04/29 03:49:13;;;;;;;;;;;;;;;15.50;40.94;100296.12;5412319;32;34425;-71
2023/04/29 03:52:15;;;;;;;;;;;;;;;15.51;40.82;100296.00;5410709;32;34255;-71
2023/04/29 03:55:17;;;;;;;;;;;;;;;15.57;40.69;100300.94;5411749;32;34250;-66
2023/04/29 03:58:19;;;;;;;;;;;;;;;15.42;40.97;100305.37;5403292;32;34824;-71
2023/04/29 04:01:20;;;;;;;;;;;;;;;15.25;41.44;100309.97;5412082;32;35664;-65
2023/04/29 04:04:22;;;;;;;;;;;;;;;15.17;41.05;100310.44;5407496;32;35367;-65
2023/04/29 04:07:25;;;;;;;;;;;;;;;14.19;43.54;100304.59;5404180;32;35154;-71
2023/04/29 04:10:27;;;;;;;;;;;;;;;14.44;43.34;100301.44;5418704;32;35451;-67
2023/04/29 04:13:29;;;;;;;;;;;;;;;15.49;41.03;100316.47;5406400;32;35866;-64
2023/04/29 04:16:31;;;;;;;;;;;;;;;15.66;40.32;100324.28;5427712;32;34718;-70
2023/04/29 04:19:35;;;;;;;;;;;;;;;15.65;40.12;100317.28;5420312;32;34908;-72
2023/04/29 04:22:37;;;;;;;;;;;;;;;14.58;42.69;100330.62;5417739;32;34719;-71
2023/04/29 04:25:46;;;;;;;;;;;;;;;15.41;41.58;100327.53;5421066;32;35197;-66
2023/04/29 04:28:48;;;;;;;;;;;;;;;15.55;41.98;100324.03;5405680;32;44530;-73
2023/04/29 04:31:49;;;;;;;;;;;;;;;15.54;41.93;100327.63;5388512;32;35172;-65
2023/04/29 04:34:51;;;;;;;;;;;;;;;15.36;42.95;100328.72;5402239;32;34997;-64
2023/04/29 04:37:53;;;;;;;;;;;;;;;15.00;44.13;100337.88;5417333;32;35060;-65
2023/04/29 04:40:55;;;;;;;;;;;;;;;15.53;42.72;100325.09;5413107;32;35287;-64
2023/04/29 04:43:57;;;;;;;;;;;;;;;15.10;44.52;100331.13;5415153;32;35574;-71
2023/04/29 04:47:00;;;;;;;;;;;;;;;15.52;43.64;100321.59;5417763;32;35622;-65
2023/04/29 04:50:03;;;;;;;;;;;;;;;15.50;43.46;100320.81;5413644;32;35140;-70
2023/04/29 04:53:05;;;;;;;;;;;;;;;15.10;44.17;100323.19;5416590;32;34723;-71
2023/04/29 04:56:07;;;;;;;;;;;;;;;14.71;45.63;100323.72;5418322;32;35420;-72
2023/04/29 04:59:09;;;;;;;;;;;;;;;15.15;43.85;100315.84;5414881;32;34788;-64
2023/04/29 05:02:11;;;;;;;;;;;;;;;15.30;43.38;100316.72;5420253;32;44623;-71
2023/04/29 05:05:13;;;;;;;;;;;;;;;15.15;43.04;100314.97;5400303;32;34987;-65
2023/04/29 05:08:15;;;;;;;;;;;;;;;14.89;44.23;100311.22;5421656;32;36615;-70
2023/04/29 05:11:17;;;;;;;;;;;;;;;14.90;44.29;100316.41;5419536;32;34784;-71
2023/04/29 05:14:22;;;;;;;;;;;;;;;14.89;44.31;100314.72;5424521;32;34575;-66
2023/04/29 05:17:24;;;;;;;;;;;;;;;15.04;44.22;100315.59;5412431;32;35374;-71
2023/04/29 05:20:26;;;;;;;;;;;;;;;15.15;44.21;100309.69;5424687;32;34885;-71
2023/04/29 05:23:28;;;;;;;;;;;;;;;15.27;42.98;100318.72;5408064;32;34688;-71
2023/04/29 05:26:30;;;;;;;;;;;;;;;14.81;44.16;100318.72;5414740;32;34571;-73
2023/04/29 05:29:32;;;;;;;;;;;;;;;15.20;43.84;100306.75;5418680;32;34935;-65
2023/04/29 05:35:58;;;;;;;;;;;;;;;15.44;42.95;100324.66;5487518;27;20174;-96
2023/04/29 05:39:00;;;;;;;;;;;;;;;15.29;43.63;100317.66;5335965;32;1009265;-96
2023/04/29 05:42:07;;;;;;;;;;;;;;;15.52;43.15;100321.59;5358785;32;33659;-96
2023/04/29 05:45:23;;;;;;;;;;;;;;;15.52;42.60;100320.72;5377889;32;45415;-96
2023/04/29 05:48:37;;;;;;;;;;;;;;;15.41;42.50;100326.66;5368489;32;33300;-96
2023/04/29 05:51:43;;;;;;;;;;;;;;;15.38;42.09;100327.69;5378061;32;33872;-96
2023/04/29 05:55:03;;;;;;;;;;;;;;;15.33;42.27;100329.78;5359120;32;42971;-96
2023/04/29 05:58:21;;;;;;;;;;;;;;;15.05;41.75;100324.41;5283148;33;42587;-96
2023/04/29 06:01:34;;;;;;;;;;;;;;;15.66;41.04;100326.91;5298872;33;34277;-96
2023/04/29 06:04:46;;;;;;;;;;;;;;;15.24;41.91;100322.37;5266045;33;34587;-96
2023/04/29 06:07:54;;;;;;;;;;;;;;;15.65;41.57;100325.22;5304471;33;44537;-96
2023/04/29 06:11:02;;;;;;;;;;;;;;;15.75;40.95;100322.00;5282579;33;33234;-96
2023/04/29 06:14:07;;;;;;;;;;;;;;;15.70;40.66;100327.56;5310654;33;34293;-96
2023/04/29 06:17:10;;;;;;;;;;;;;;;15.51;40.45;100333.09;5277948;33;34091;-96
2023/04/29 06:20:35;;;;;;;;;;;;;;;15.15;40.79;100336.16;5273518;33;34421;-96
2023/04/29 06:23:48;;;;;;;;;;;;;;;14.88;42.17;100346.56;5294384;33;34640;-96
2023/04/29 06:26:56;;;;;;;;;;;;;;;15.20;41.09;100350.00;5290340;33;42714;-96
2023/04/29 06:30:08;;;;;;;;;;;;;;;15.61;39.56;100344.84;5288441;33;34468;-96
2023/04/29 06:33:37;;;;;;;;;;;;;;;15.92;39.48;100335.91;5286699;33;34506;-95
2023/04/29 06:36:50;;;;;;;;;;;;;;;15.44;40.84;100337.91;5226767;33;44329;-96
2023/04/29 06:39:54;;;;;;;;;;;;;;;15.90;39.25;100331.63;5252842;33;33855;-95
2023/04/29 06:42:56;;;;;;;;;;;;;;;15.98;38.74;100340.84;5256149;33;34352;-96
2023/04/29 06:46:00;;;;;;;;;;;;;;;15.65;39.30;100346.41;5242990;33;34992;-96
2023/04/29 06:49:13;;;;;;;;;;;;;;;15.03;41.49;100336.88;5302395;33;35337;-96
2023/04/29 06:52:24;;;;;;;;;;;;;;;15.48;40.73;100337.75;5287943;33;46059;-96
2023/04/29 06:55:33;;;;;;;;;;;;;;;15.97;39.67;100339.13;5304475;33;34542;-96
2023/04/29 06:58:47;;;;;;;;;;;;;;;15.81;38.99;100342.81;5301824;32;43295;-96
2023/04/29 07:01:52;;;;;;;;;;;;;;;15.96;38.56;100348.00;5330080;32;45140;-96
2023/04/29 07:04:58;;;;;;;;;;;;;;;16.04;38.16;100344.06;5313955;33;35058;-96
2023/04/29 07:08:05;;;;;;;;;;;;;;;15.75;39.28;100348.50;5331477;32;34757;-96
2023/04/29 07:11:10;;;;;;;;;;;;;;;15.55;40.26;100344.38;5281867;28;34238;-70
2023/04/29 07:14:12;;;;;;;;;;;;;;;15.94;39.18;100341.97;5301667;32;34710;-76
2023/04/29 07:17:14;;;;;;;;;;;;;;;16.42;37.27;100337.19;5313732;32;35150;-69
2023/04/29 07:20:16;;;;;;;;;;;;;;;16.47;37.38;100342.19;5302748;32;44843;-69
2023/04/29 07:23:18;;;;;;;;;;;;;;;16.24;37.72;100339.22;5313407;32;35915;-76
2023/04/29 07:26:20;;;;;;;;;;;;;;;16.34;37.44;100339.47;5270520;32;36218;-70
2023/04/29 07:29:22;;;;;;;;;;;;;;;16.05;38.75;100336.00;5289966;32;34962;-69
2023/04/29 07:32:24;;;;;;;;;;;;;;;16.08;38.45;100343.75;5314338;32;35320;-77
2023/04/29 07:35:26;;;;;;;;;;;;;;;16.81;36.62;100334.69;5301241;32;34484;-77
2023/04/29 07:38:28;;;;;;;;;;;;;;;16.48;37.98;100331.47;5302203;32;34953;-69
2023/04/29 07:41:30;;;;;;;;;;;;;;;16.67;38.72;100341.72;5322298;32;35176;-68
2023/04/29 07:44:32;;;;;;;;;;;;;;;16.18;40.63;100334.28;5334905;32;34584;-71
2023/04/29 07:47:34;;;;;;;;;;;;;;;15.64;41.90;100338.53;5322921;32;35265;-70
2023/04/29 07:50:36;;;;;;;;;;;;;;;15.95;42.52;100333.06;5307773;32;35373;-76
2023/04/29 07:53:38;;;;;;;;;;;;;;;16.12;43.02;100336.47;5318977;32;34865;-75
2023/04/29 07:56:40;;;;;;;;;;;;;;;15.45;43.49;100357.31;5321100;32;36042;-77
2023/04/29 07:59:41;;;;;;;;;;;;;;;15.98;42.11;100358.53;5335307;32;35088;-68
2023/04/29 08:02:44;;;;;;;;;;;;;;;15.88;41.89;100350.28;5309253;32;35157;-78
2023/04/29 08:05:47;;;;;;;;;;;;;;;15.79;42.01;100358.81;5335071;32;35421;-77
2023/04/29 08:08:49;;;;;;;;;;;;;;;17.07;39.53;100355.09;5321363;32;44549;-77
2023/04/29 08:11:51;;;;;;;;;;;;;;;16.73;40.19;100354.63;5309865;32;35830;-68
2023/04/29 08:14:52;;;;;;;;;;;;;;;16.68;40.43;100348.78;5335482;32;35631;-77
2023/04/29 08:17:55;;;;;;;;;;;;;;;17.44;37.81;100352.59;5322966;32;35000;-69
2023/04/29 08:20:57;;;;;;;;;;;;;;;16.95;38.71;100355.91;5334852;32;34445;-75
2023/04/29 08:23:59;;;;;;;;;;;;;;;18.04;36.53;100357.34;5298566;32;34698;-77
2023/04/29 08:27:02;;;;;;;;;;;;;;;18.15;36.44;100346.75;5312227;32;35057;-77
2023/04/29 08:30:05;;;;;;;;;;;;;;;18.44;35.17;100349.16;5311466;32;37194;-69
2023/04/29 08:33:07;;;;;;;;;;;;;;;18.99;34.65;100356.63;5323311;32;34511;-77
2023/04/29 08:36:09;;;;;;;;;;;;;;;18.36;35.32;100352.37;5322470;32;34559;-77
2023/04/29 08:39:11;;;;;;;;;;;;;;;17.57;37.12;100358.78;5323744;32;35412;-76
2023/04/29 08:42:13;;;;;;;;;;;;;;;17.98;36.12;100360.44;5322418;32;36007;-69
2023/04/29 08:45:16;;;;;;;;;;;;;;;17.51;37.05;100360.03;5296161;32;34912;-69
2023/04/29 08:48:18;;;;;;;;;;;;;;;18.54;35.32;100353.69;5318798;32;46783;-76
2023/04/29 08:51:20;;;;;;;;;;;;;;;16.27;39.53;100353.22;5306614;32;35109;-68
2023/04/29 08:54:22;;;;;;;;;;;;;;;17.93;36.47;100357.22;5320313;32;35821;-69
2023/04/29 08:57:24;;;;;;;;;;;;;;;17.99;35.33;100364.78;5337567;32;34735;-69
2023/04/29 09:00:29;;;;;;;;;;;;;;;18.28;35.18;100355.56;5324229;32;35299;-69
2023/04/29 09:03:51;;;;;;;;;;;;;;;16.88;37.00;100358.13;5323233;32;34758;-77
2023/04/29 09:06:55;;;;;;;;;;;;;;;17.71;35.97;100360.47;5312625;32;44604;-77
2023/04/29 09:09:57;;;;;;;;;;;;;;;18.30;34.30;100352.81;5314541;32;34999;-76
2023/04/29 09:13:00;;;;;;;;;;;;;;;19.27;31.98;100358.06;5322478;32;35852;-69
2023/04/29 09:16:02;;;;;;;;;;;;;;;19.21;31.83;100356.72;5322300;32;35243;-76
2023/04/29 09:19:03;;;;;;;;;;;;;;;17.23;35.11;100377.00;5324290;32;35581;-75
2023/04/29 09:22:06;;;;;;;;;;;;;;;18.14;33.58;100369.00;5324865;32;34459;-77
2023/04/29 09:25:14;;;;;;;;;;;;;;;18.11;33.99;100374.56;5316284;32;35017;-77
2023/04/29 09:28:16;;;;;;;;;;;;;;;17.26;35.65;100368.84;5312688;32;44673;-69
2023/04/29 09:31:26;;;;;;;;;;;;;;;17.68;34.59;100372.19;5311260;32;45091;-77
2023/04/29 09:34:31;;;;;;;;;;;;;;;17.38;35.13;100363.63;5337651;32;34110;-72
2023/04/29 09:37:32;;;;;;;;;;;;;;;18.12;34.14;100365.63;5325036;32;34448;-75
2023/04/29 09:40:35;;;;;;;;;;;;;;;18.64;33.28;100364.53;5337439;32;35110;-77
2023/04/29 09:44:04;;;;;;;;;;;;;;;18.20;34.17;100357.09;5311638;32;34771;-70
2023/04/29 09:47:07;;;;;;;;;;;;;;;18.76;32.23;100360.16;5322440;32;34949;-76
2023/04/29 09:50:12;;;;;;;;;;;;;;;19.51;30.66;100352.66;5332714;32;34950;-76
2023/04/29 09:53:26;;;;;;;;;;;;;;;18.44;32.84;100358.00;5308501;32;35330;-73
2023/04/29 09:56:29;;;;;;;;;;;;;;;18.24;33.17;100353.25;5323294;32;35102;-69
2023/04/29 09:59:34;;;;;;;;;;;;;;;18.68;32.37;100350.06;5311523;32;34624;-69
2023/04/29 10:02:36;;;;;;;;;;;;;;;19.30;30.83;100349.84;5321202;32;35609;-69
2023/04/29 10:05:38;;;;;;;;;;;;;;;19.24;30.63;100342.31;5314510;32;35500;-77
2023/04/29 10:08:40;;;;;;;;;;;;;;;18.87;30.98;100347.75;5307609;32;34730;-74
2023/04/29 10:11:47;;;;;;;;;;;;;;;18.21;32.55;100343.66;5336746;32;35894;-69
2023/04/29 10:14:54;;;;;;;;;;;;;;;20.50;29.21;100330.69;5309552;32;46504;-69
2023/04/29 10:18:06;;;;;;;;;;;;;;;20.26;29.49;100334.31;5317665;32;35833;-78
2023/04/29 10:21:11;;;;;;;;;;;;;;;20.76;28.33;100331.22;5311229;32;35430;-77
2023/04/29 10:24:13;;;;;;;;;;;;;;;21.66;26.27;100334.31;5311356;32;34350;-69
2023/04/29 10:27:15;;;;;;;;;;;;;;;20.46;27.60;100338.09;5314042;32;35150;-69
2023/04/29 10:30:17;;;;;;;;;;;;;;;20.00;28.33;100332.88;5309690;32;44773;-70
2023/04/29 10:33:19;;;;;;;;;;;;;;;20.14;28.77;100329.97;5322791;32;34882;-77
2023/04/29 10:36:22;;;;;;;;;;;;;;;20.02;28.67;100320.28;5311108;32;34584;-77
2023/04/29 10:39:36;;;;;;;;;;;;;;;19.91;28.89;100326.47;5322469;32;34675;-69
2023/04/29 10:42:42;;;;;;;;;;;;;;;22.06;25.85;100309.44;5312225;32;35111;-76
2023/04/29 10:45:44;;;;;;;;;;;;;;;22.92;24.30;100307.94;5309770;32;35005;-77
2023/04/29 10:48:48;;;;;;;;;;;;;;;22.48;24.63;100302.13;5320268;32;34974;-78
2023/04/29 10:51:50;;;;;;;;;;;;;;;21.66;26.32;100298.69;5309846;32;49257;-77
2023/04/29 10:55:00;;;;;;;;;;;;;;;23.73;23.42;100290.47;5320007;32;34674;-78
2023/04/29 10:58:03;;;;;;;;;;;;;;;22.91;24.74;100288.34;5310108;32;34952;-70
2023/04/29 11:01:06;;;;;;;;;;;;;;;23.58;23.68;100283.03;5328931;32;35346;-70
2023/04/29 11:04:09;;;;;;;;;;;;;;;23.99;23.30;100265.66;5331111;32;34659;-70
2023/04/29 11:07:25;;;;;;;;;;;;;;;23.61;23.52;100270.19;5312202;32;34972;-77
2023/04/29 11:10:35;;;;;;;;;;;;;;;22.48;25.09;100269.09;5320193;32;35006;-68
2023/04/29 11:13:37;;;;;;;;;;;;;;;25.04;22.33;100254.28;5325063;32;35826;-70
2023/04/29 11:16:47;;;;;;;;;;;;;;;23.64;24.24;100259.19;5322147;32;35411;-69
2023/04/29 11:19:49;;;;;;;;;;;;;;;24.00;23.57;100253.91;5322059;32;44741;-77
2023/04/29 11:22:52;;;;;;;;;;;;;;;25.26;22.12;100251.13;5309509;32;35585;-77
2023/04/29 11:25:55;;;;;;;;;;;;;;;24.29;23.08;100249.22;5300555;32;34865;-69
2023/04/29 11:28:59;;;;;;;;;;;;;;;22.91;24.74;100249.97;5323444;32;35162;-69
2023/04/29 11:32:02;;;;;;;;;;;;;;;22.45;25.67;100243.47;5336106;32;35103;-70
2023/04/29 11:35:13;;;;;;;;;;;;;;;20.48;28.89;100252.53;5309579;32;34360;-75
2023/04/29 11:38:15;;;;;;;;;;;;;;;21.62;26.99;100245.47;5327765;32;34587;-79
2023/04/29 11:41:17;;;;;;;;;;;;;;;23.59;24.54;100239.12;5318392;32;35670;-70
2023/04/29 11:44:22;;;;;;;;;;;;;;;23.20;25.16;100245.44;5324781;32;35520;-70
2023/04/29 11:47:29;;;;;;;;;;;;;;;24.04;24.07;100239.22;5322771;32;34453;-70
2023/04/29 11:50:35;;;;;;;;;;;;;;;25.24;22.81;100236.97;5318682;32;35209;-70
2023/04/29 11:53:37;;;;;;;;;;;;;;;24.57;23.15;100235.75;5332328;32;34718;-76
2023/04/29 11:56:39;;;;;;;;;;;;;;;24.52;24.09;100232.69;5310720;32;35514;-76
2023/04/29 11:59:41;;;;;;;;;;;;;;;28.06;19.57;100234.97;5323174;32;35182;-77
2023/04/29 12:02:44;;;;;;;;;;;;;;;30.10;17.98;100216.06;5322615;32;35331;-70
2023/04/29 12:05:48;;;;;;;;;;;;;;;29.20;18.78;100235.19;5309300;32;44706;-69
2023/04/29 12:08:50;;;;;;;;;;;;;;;28.78;18.12;100228.44;5335523;32;34994;-77
2023/04/29 12:11:52;;;;;;;;;;;;;;;26.88;20.69;100215.00;5312628;32;34380;-69
2023/04/29 12:14:54;;;;;;;;;;;;;;;28.12;19.56;100219.91;5331131;32;34857;-69
2023/04/29 12:17:56;;;;;;;;;;;;;;;28.96;18.69;100215.47;5311828;32;36396;-69
2023/04/29 12:20:58;;;;;;;;;;;;;;;30.40;17.28;100212.25;5309332;32;35391;-69
2023/04/29 12:24:03;;;;;;;;;;;;;;;26.09;21.58;100221.81;5322699;32;35289;-75
2023/04/29 12:27:09;;;;;;;;;;;;;;;26.04;21.78;100212.53;5316000;32;35385;-76
2023/04/29 12:30:11;;;;;;;;;;;;;;;25.22;23.42;100220.19;5335782;32;35112;-69
2023/04/29 12:33:24;;;;;;;;;;;;;;;24.98;23.84;100217.28;5311763;32;35041;-77
2023/04/29 12:36:27;;;;;;;;;;;;;;;26.70;21.51;100206.25;5318918;32;44429;-71
2023/04/29 12:39:29;;;;;;;;;;;;;;;27.45;20.53;100212.25;5332102;32;37338;-70
2023/04/29 12:42:32;;;;;;;;;;;;;;;25.38;23.20;100214.91;5326525;32;34651;-69
2023/04/29 12:45:34;;;;;;;;;;;;;;;26.56;21.78;100194.28;5336621;32;34887;-70
2023/04/29 12:48:37;;;;;;;;;;;;;;;24.63;24.38;100196.69;5310392;32;34707;-70
2023/04/29 12:51:39;;;;;;;;;;;;;;;23.30;26.29;100198.97;5336618;32;35066;-77
2023/04/29 12:54:42;;;;;;;;;;;;;;;23.47;26.02;100195.53;5322337;32;35597;-76
2023/04/29 12:57:44;;;;;;;;;;;;;;;24.21;25.20;100179.28;5316538;32;35140;-69
2023/04/29 13:00:46;;;;;;;;;;;;;;;23.31;26.18;100188.09;5332197;32;35659;-69
2023/04/29 13:03:50;;;;;;;;;;;;;;;22.78;27.40;100180.59;5301043;32;35288;-70
2023/04/29 13:06:59;;;;;;;;;;;;;;;22.04;28.47;100181.12;5337515;32;35481;-77
2023/04/29 13:10:01;;;;;;;;;;;;;;;21.40;29.27;100175.31;5310896;32;34664;-75
2023/04/29 13:13:03;;;;;;;;;;;;;;;21.07;30.19;100174.56;5337760;32;34449;-69
2023/04/29 13:16:05;;;;;;;;;;;;;;;21.17;29.96;100175.44;5326308;32;34552;-69
2023/04/29 13:19:07;;;;;;;;;;;;;;;21.33;29.71;100166.97;5325253;32;35402;-76
2023/04/29 13:22:29;;;;;;;;;;;;;;;21.68;29.37;100173.69;5336981;32;34365;-69
2023/04/29 13:25:31;;;;;;;;;;;;;;;23.41;26.77;100164.78;5306023;32;34981;-76
2023/04/29 13:28:33;;;;;;;;;;;;;;;24.25;25.37;100151.16;5323834;32;35219;-69
2023/04/29 13:31:35;;;;;;;;;;;;;;;23.51;26.33;100157.53;5313391;32;35042;-72
2023/04/29 13:34:37;;;;;;;;;;;;;;;23.72;26.28;100146.59;5320911;32;34858;-69
2023/04/29 13:37:39;;;;;;;;;;;;;;;22.04;28.36;100153.50;5329799;32;35706;-70
2023/04/29 13:40:41;;;;;;;;;;;;;;;21.94;28.96;100148.13;5323435;32;35796;-78
2023/04/29 13:43:47;;;;;;;;;;;;;;;23.85;26.45;100138.19;5337000;32;44770;-69
2023/04/29 13:46:51;;;;;;;;;;;;;;;23.60;26.95;100139.69;5312492;32;35369;-75
2023/04/29 13:49:53;;;;;;;;;;;;;;;23.91;25.90;100136.72;5321236;32;35426;-74
2023/04/29 13:52:58;;;;;;;;;;;;;;;23.92;26.01;100133.03;5310325;32;35005;-70
2023/04/29 13:56:03;;;;;;;;;;;;;;;24.45;25.46;100127.69;5316656;32;35349;-78
2023/04/29 13:59:09;;;;;;;;;;;;;;;22.13;28.64;100137.47;5334652;32;35482;-77
2023/04/29 14:02:13;;;;;;;;;;;;;;;22.90;27.83;100141.09;5325580;32;33889;-70
2023/04/29 14:05:25;;;;;;;;;;;;;;;22.42;28.28;100131.31;5336151;32;45484;-71
2023/04/29 14:08:28;;;;;;;;;;;;;;;23.91;26.39;100139.41;5326271;32;34507;-70
2023/04/29 14:11:29;;;;;;;;;;;;;;;23.00;27.78;100138.41;5323150;32;34401;-70
2023/04/29 14:14:31;;;;;;;;;;;;;;;22.62;28.42;100148.19;5311365;32;35028;-77
2023/04/29 14:17:35;;;;;;;;;;;;;;;23.14;27.29;100128.06;5325793;32;35054;-68
2023/04/29 14:20:37;;;;;;;;;;;;;;;23.06;27.38;100130.62;5336098;32;34363;-69
2023/04/29 14:23:38;;;;;;;;;;;;;;;21.76;29.18;100129.22;5315875;32;35008;-70
2023/04/29 14:26:40;;;;;;;;;;;;;;;22.82;28.05;100138.28;5325295;32;35722;-77
2023/04/29 14:29:42;;;;;;;;;;;;;;;23.08;27.59;100128.66;5310159;32;35747;-71
2023/04/29 14:32:45;;;;;;;;;;;;;;;22.32;28.83;100119.75;5336849;32;35458;-76
2023/04/29 14:35:47;;;;;;;;;;;;;;;22.04;29.56;100127.59;5324626;32;46338;-75
2023/04/29 14:38:49;;;;;;;;;;;;;;;22.02;29.63;100124.19;5309998;32;35458;-77
2023/04/29 14:41:51;;;;;;;;;;;;;;;21.68;30.33;100115.72;5338063;32;35566;-68
2023/04/29 14:44:53;;;;;;;;;;;;;;;21.01;31.46;100117.16;5324753;32;35472;-77
2023/04/29 14:47:55;;;;;;;;;;;;;;;21.49;30.82;100111.16;5337447;32;35866;-69
2023/04/29 14:50:57;;;;;;;;;;;;;;;22.02;30.15;100110.81;5309692;32;35447;-76
2023/04/29 14:53:59;;;;;;;;;;;;;;;22.09;29.97;100117.34;5331543;32;34476;-76
2023/04/29 14:57:01;;;;;;;;;;;;;;;23.06;28.34;100117.25;5313638;32;35316;-77
2023/04/29 15:00:04;;;;;;;;;;;;;;;21.49;30.64;100129.03;5321269;32;36495;-77
2023/04/29 15:03:06;;;;;;;;;;;;;;;21.81;30.17;100126.16;5337155;32;35497;-70
2023/04/29 15:06:08;;;;;;;;;;;;;;;21.92;30.17;100128.72;5324251;32;35648;-76
2023/04/29 15:09:09;;;;;;;;;;;;;;;20.79;31.71;100130.62;5321482;32;35297;-68
2023/04/29 15:12:15;;;;;;;;;;;;;;;21.09;31.51;100121.81;5323913;32;35600;-77
2023/04/29 15:15:17;;;;;;;;;;;;;;;20.76;32.18;100122.91;5319644;32;44518;-69
2023/04/29 15:18:22;;;;;;;;;;;;;;;21.25;32.01;100135.53;5327309;32;35594;-68
2023/04/29 15:21:24;;;;;;;;;;;;;;;21.98;30.46;100120.12;5324913;32;34619;-68
2023/04/29 15:24:25;;;;;;;;;;;;;;;20.65;32.44;100136.31;5307467;32;34360;-69
2023/04/29 15:27:27;;;;;;;;;;;;;;;20.99;31.97;100129.75;5303918;32;34996;-70
2023/04/29 15:30:29;;;;;;;;;;;;;;;20.66;32.67;100127.31;5322866;32;35437;-76
2023/04/29 15:33:34;;;;;;;;;;;;;;;21.19;31.94;100125.37;5311215;32;35561;-77
2023/04/29 15:36:35;;;;;;;;;;;;;;;22.06;30.50;100117.59;5331385;32;34394;-77
2023/04/29 15:39:37;;;;;;;;;;;;;;;21.75;31.12;100121.34;5314567;32;34922;-69
2023/04/29 15:42:39;;;;;;;;;;;;;;;21.30;32.26;100125.31;5325422;32;34771;-69
2023/04/29 15:45:41;;;;;;;;;;;;;;;21.28;32.09;100121.06;5336275;32;34869;-77